Time;durP1;ratioP1;P1;durP2;ratioP2;P2;SDS_P1;SDS_P2;PMS_P1;PMS_P2;Temp;Humidity;BMP_temperature;BMP_pressure;BME280_temperature;BME280_humidity;BME280_pressure;Samples;Min_cycle;Max_cycle;Signal;HPM_P1;HPM_P2
2023/06/15 00:01:47;;;;;;;1.30;1.15;;;;;;;;;;5014656;28;20021;-86
2023/06/15 00:04:12;;;;;;;1.45;1.20;;;;;;;;;;5013956;28;20032;-86
2023/06/15 00:06:38;;;;;;;1.65;0.98;;;;;;;;;;5014100;28;20525;-86
2023/06/15 00:09:04;;;;;;;1.85;1.17;;;;;;;;;;5014186;28;20030;-87
2023/06/15 00:11:29;;;;;;;3.03;1.80;;;;;;;;;;5013440;28;20112;-86
2023/06/15 00:13:55;;;;;;;1.77;1.20;;;;;;;;;;5015012;28;20116;-88
2023/06/15 00:16:20;;;;;;;1.42;1.10;;;;;;;;;;5013553;28;20018;-87
2023/06/15 00:18:47;;;;;;;1.70;1.08;;;;;;;;;;5031328;28;20951;-88
2023/06/15 00:21:15;;;;;;;1.20;1.05;;;;;;;;;;5010942;28;20469;-86
2023/06/15 00:23:42;;;;;;;2.60;1.48;;;;;;;;;;5012414;28;20033;-88
2023/06/15 00:26:07;;;;;;;2.00;1.38;;;;;;;;;;5014108;28;20029;-86
2023/06/15 00:28:33;;;;;;;1.90;1.15;;;;;;;;;;5031751;28;20511;-84
2023/06/15 00:31:00;;;;;;;1.73;1.25;;;;;;;;;;5013017;28;20036;-87
2023/06/15 00:33:25;;;;;;;2.22;1.60;;;;;;;;;;5031301;28;20025;-84
2023/06/15 00:35:51;;;;;;;3.35;1.70;;;;;;;;;;5018507;28;20080;-84
2023/06/15 00:38:16;;;;;;;0.90;0.77;;;;;;;;;;5013718;28;20033;-85
2023/06/15 00:40:41;;;;;;;4.32;2.53;;;;;;;;;;5036332;28;20444;-85
2023/06/15 00:43:07;;;;;;;1.52;1.23;;;;;;;;;;5017821;28;20559;-86
2023/06/15 00:45:32;;;;;;;2.28;1.55;;;;;;;;;;5018458;28;20056;-83
2023/06/15 00:47:58;;;;;;;2.53;1.77;;;;;;;;;;5016322;28;20053;-85
2023/06/15 00:50:25;;;;;;;2.92;2.25;;;;;;;;;;5034692;28;20540;-85
2023/06/15 00:52:52;;;;;;;3.22;1.85;;;;;;;;;;5035775;28;20032;-85
2023/06/15 00:55:18;;;;;;;2.05;1.45;;;;;;;;;;5037564;28;20036;-86
2023/06/15 00:57:49;;;;;;;2.80;1.77;;;;;;;;;;5020933;28;20096;-83
2023/06/15 01:00:16;;;;;;;2.25;1.30;;;;;;;;;;5012125;28;20040;-85
2023/06/15 01:02:42;;;;;;;2.92;1.70;;;;;;;;;;5032268;28;20037;-87
2023/06/15 01:05:10;;;;;;;6.70;2.45;;;;;;;;;;5015974;28;20056;-87
2023/06/15 01:07:40;;;;;;;2.65;2.10;;;;;;;;;;5016052;28;20025;-88
2023/06/15 01:10:08;;;;;;;3.38;1.75;;;;;;;;;;5014789;28;20377;-83
2023/06/15 01:12:40;;;;;;;2.58;1.80;;;;;;;;;;5033707;28;20477;-87
2023/06/15 01:15:07;;;;;;;2.30;1.52;;;;;;;;;;5032547;28;20029;-86
2023/06/15 01:17:34;;;;;;;1.55;1.33;;;;;;;;;;5014994;28;20017;-85
2023/06/15 01:20:07;;;;;;;2.17;1.55;;;;;;;;;;5033527;28;20033;-86
2023/06/15 01:22:45;;;;;;;3.08;1.88;;;;;;;;;;5034192;28;20378;-88
2023/06/15 01:25:26;;;;;;;1.90;1.20;;;;;;;;;;5015958;28;20383;-88
2023/06/15 01:28:02;;;;;;;3.58;1.70;;;;;;;;;;5015906;28;20029;-86
2023/06/15 01:30:33;;;;;;;1.75;1.42;;;;;;;;;;5016455;28;20028;-86
2023/06/15 01:32:59;;;;;;;2.28;1.52;;;;;;;;;;5014917;28;20563;-90
2023/06/15 01:35:25;;;;;;;1.65;1.55;;;;;;;;;;5018789;28;20026;-86
2023/06/15 01:37:50;;;;;;;2.88;1.50;;;;;;;;;;5028978;28;20041;-85
2023/06/15 01:40:16;;;;;;;2.17;1.38;;;;;;;;;;5032440;28;20112;-86
2023/06/15 01:42:44;;;;;;;1.83;1.17;;;;;;;;;;5016867;28;20116;-85
2023/06/15 01:45:10;;;;;;;3.20;1.70;;;;;;;;;;5017603;28;20033;-86
2023/06/15 01:47:37;;;;;;;0.90;0.77;;;;;;;;;;5034781;28;20045;-86
2023/06/15 01:50:04;;;;;;;1.75;1.23;;;;;;;;;;5033604;28;20093;-85
2023/06/15 01:52:29;;;;;;;2.22;0.77;;;;;;;;;;5033582;28;20021;-84
2023/06/15 01:54:55;;;;;;;1.88;1.00;;;;;;;;;;5015775;28;20035;-84
2023/06/15 01:57:21;;;;;;;1.67;1.10;;;;;;;;;;5034546;28;20040;-87
2023/06/15 01:59:47;;;;;;;1.75;1.20;;;;;;;;;;5017159;28;20021;-85
2023/06/15 02:02:12;;;;;;;1.35;0.90;;;;;;;;;;5034487;28;20029;-86
2023/06/15 02:04:38;;;;;;;1.05;0.80;;;;;;;;;;5018591;28;20032;-86
2023/06/15 02:07:03;;;;;;;1.85;1.02;;;;;;;;;;5033591;28;20047;-87
2023/06/15 02:09:29;;;;;;;0.70;0.70;;;;;;;;;;5036736;28;20028;-84
2023/06/15 02:11:56;;;;;;;1.00;0.90;;;;;;;;;;5034666;28;20033;-88
2023/06/15 02:14:24;;;;;;;1.50;1.00;;;;;;;;;;5018393;28;20088;-88
2023/06/15 02:16:50;;;;;;;2.72;1.58;;;;;;;;;;5016498;28;20083;-86
2023/06/15 02:19:21;;;;;;;1.23;0.88;;;;;;;;;;5035094;28;20025;-85
2023/06/15 02:21:50;;;;;;;2.15;1.42;;;;;;;;;;5022781;28;20030;-86
2023/06/15 02:24:16;;;;;;;1.55;1.02;;;;;;;;;;5036247;28;20030;-88
2023/06/15 02:26:43;;;;;;;1.02;0.95;;;;;;;;;;5014123;28;20515;-86
2023/06/15 02:29:08;;;;;;;2.58;1.52;;;;;;;;;;5011733;28;20025;-85
2023/06/15 02:31:35;;;;;;;2.00;1.17;;;;;;;;;;5014171;28;20454;-87
2023/06/15 02:34:01;;;;;;;0.90;0.70;;;;;;;;;;5032289;28;20026;-87
2023/06/15 02:36:28;;;;;;;1.15;1.00;;;;;;;;;;5014990;28;20040;-90
2023/06/15 02:38:54;;;;;;;1.73;1.02;;;;;;;;;;5030654;28;20462;-86
2023/06/15 02:41:19;;;;;;;0.80;0.80;;;;;;;;;;5028669;28;20154;-86
2023/06/15 02:43:45;;;;;;;0.95;0.75;;;;;;;;;;5028831;28;20025;-86
2023/06/15 02:46:10;;;;;;;1.45;1.20;;;;;;;;;;5012895;28;20042;-86
2023/06/15 02:48:37;;;;;;;1.40;0.82;;;;;;;;;;5014334;28;20037;-84
2023/06/15 02:51:03;;;;;;;2.05;1.20;;;;;;;;;;5015093;28;20112;-85
2023/06/15 02:53:28;;;;;;;0.85;0.55;;;;;;;;;;5016041;28;20061;-85
2023/06/15 02:55:54;;;;;;;2.25;1.35;;;;;;;;;;5009720;28;20110;-88
2023/06/15 02:58:20;;;;;;;2.13;0.93;;;;;;;;;;5009793;28;20040;-86
2023/06/15 03:00:50;;;;;;;0.80;0.80;;;;;;;;;;5025693;28;20033;-85
2023/06/15 03:03:22;;;;;;;3.30;0.98;;;;;;;;;;5034294;28;20064;-84
2023/06/15 03:05:51;;;;;;;0.82;0.63;;;;;;;;;;5015376;28;20033;-85
2023/06/15 03:08:18;;;;;;;3.38;2.03;;;;;;;;;;5033312;28;20025;-85
2023/06/15 03:10:44;;;;;;;2.22;1.42;;;;;;;;;;5031304;28;20036;-85
2023/06/15 03:13:10;;;;;;;1.67;1.05;;;;;;;;;;5007386;28;20083;-85
2023/06/15 03:15:36;;;;;;;1.55;1.25;;;;;;;;;;5028782;28;20056;-86
2023/06/15 03:18:03;;;;;;;1.35;1.17;;;;;;;;;;5025532;28;20040;-87
2023/06/15 03:20:32;;;;;;;2.90;2.00;;;;;;;;;;5000530;28;20053;-87
2023/06/15 03:23:01;;;;;;;1.58;1.48;;;;;;;;;;5010021;28;20029;-84
2023/06/15 03:25:29;;;;;;;1.45;0.95;;;;;;;;;;5011899;28;20032;-85
2023/06/15 03:27:59;;;;;;;2.17;1.20;;;;;;;;;;5032717;28;20277;-84
2023/06/15 03:30:26;;;;;;;2.17;1.45;;;;;;;;;;5029981;28;20040;-84
2023/06/15 03:32:53;;;;;;;1.40;1.13;;;;;;;;;;5030433;28;20021;-82
2023/06/15 03:35:20;;;;;;;2.70;1.88;;;;;;;;;;5016347;28;20053;-86
2023/06/15 03:37:45;;;;;;;2.20;1.10;;;;;;;;;;5015371;28;20033;-85
2023/06/15 03:40:11;;;;;;;0.70;0.57;;;;;;;;;;5014733;28;20155;-84
2023/06/15 03:42:37;;;;;;;1.05;0.90;;;;;;;;;;5013583;28;20022;-85
2023/06/15 03:45:03;;;;;;;1.60;1.30;;;;;;;;;;5031650;28;20034;-86
2023/06/15 03:47:29;;;;;;;1.33;1.05;;;;;;;;;;5030317;28;20548;-84
2023/06/15 03:49:55;;;;;;;1.50;1.38;;;;;;;;;;5030170;28;20033;-85
2023/06/15 03:52:20;;;;;;;1.15;1.05;;;;;;;;;;5014715;28;20473;-86
2023/06/15 03:54:46;;;;;;;1.83;1.20;;;;;;;;;;5012330;28;20389;-85
2023/06/15 03:57:11;;;;;;;1.38;1.08;;;;;;;;;;5025754;28;20049;-86
2023/06/15 03:59:36;;;;;;;2.28;1.63;;;;;;;;;;5030109;28;20037;-82
2023/06/15 04:02:03;;;;;;;0.90;0.73;;;;;;;;;;5029413;28;20038;-86
2023/06/15 04:04:32;;;;;;;1.52;1.10;;;;;;;;;;5006567;28;20092;-84
2023/06/15 04:06:57;;;;;;;2.17;1.03;;;;;;;;;;5024655;28;20057;-85
2023/06/15 04:09:22;;;;;;;2.25;1.42;;;;;;;;;;5011233;28;20507;-84
2023/06/15 04:11:48;;;;;;;2.20;1.38;;;;;;;;;;5031585;28;20053;-85
2023/06/15 04:14:14;;;;;;;2.55;1.88;;;;;;;;;;5034339;28;20026;-83
2023/06/15 04:16:40;;;;;;;7.78;2.13;;;;;;;;;;5015281;28;20117;-83
2023/06/15 04:19:07;;;;;;;2.10;1.20;;;;;;;;;;5032033;28;20097;-84
2023/06/15 04:21:32;;;;;;;3.88;1.85;;;;;;;;;;5015579;28;20470;-83
2023/06/15 04:23:58;;;;;;;1.75;1.23;;;;;;;;;;5014823;28;20021;-83
2023/06/15 04:26:23;;;;;;;2.30;1.52;;;;;;;;;;5014860;28;20033;-84
2023/06/15 04:28:49;;;;;;;2.20;1.73;;;;;;;;;;5026989;28;20034;-83
2023/06/15 04:31:17;;;;;;;2.58;1.67;;;;;;;;;;5015473;28;20036;-83
2023/06/15 04:33:44;;;;;;;2.13;1.52;;;;;;;;;;5033062;28;20021;-83
2023/06/15 04:36:14;;;;;;;3.25;1.95;;;;;;;;;;5027958;28;20038;-83
2023/06/15 04:38:46;;;;;;;2.65;1.88;;;;;;;;;;5032032;28;20425;-88
2023/06/15 04:41:12;;;;;;;3.10;1.85;;;;;;;;;;5031366;28;20029;-86
2023/06/15 04:43:38;;;;;;;4.40;2.00;;;;;;;;;;5008421;28;20034;-85
2023/06/15 04:46:03;;;;;;;3.00;2.15;;;;;;;;;;5032292;28;20389;-86
2023/06/15 04:48:29;;;;;;;2.90;1.65;;;;;;;;;;5012721;28;20095;-87
2023/06/15 04:50:56;;;;;;;2.42;1.75;;;;;;;;;;5029874;28;20423;-86
2023/06/15 04:53:21;;;;;;;3.50;2.35;;;;;;;;;;5014300;28;20025;-85
2023/06/15 04:55:50;;;;;;;2.33;1.60;;;;;;;;;;5015023;28;20014;-85
2023/06/15 04:58:17;;;;;;;2.63;1.30;;;;;;;;;;5014330;28;20065;-85
2023/06/15 05:00:43;;;;;;;2.35;1.83;;;;;;;;;;5032341;28;20409;-85
2023/06/15 05:03:08;;;;;;;1.33;0.88;;;;;;;;;;5032606;28;20528;-83
2023/06/15 05:05:34;;;;;;;2.03;1.52;;;;;;;;;;5031997;28;20034;-85
2023/06/15 05:07:59;;;;;;;1.80;1.15;;;;;;;;;;5031412;28;20021;-84
2023/06/15 05:10:25;;;;;;;3.38;1.88;;;;;;;;;;5014237;28;20033;-85
2023/06/15 05:12:51;;;;;;;4.30;2.20;;;;;;;;;;5013322;28;20032;-85
2023/06/15 05:15:17;;;;;;;3.13;2.20;;;;;;;;;;5010398;28;20036;-84
2023/06/15 05:17:43;;;;;;;1.67;1.15;;;;;;;;;;5032136;28;20485;-85
2023/06/15 05:20:09;;;;;;;2.08;1.80;;;;;;;;;;5028905;28;20033;-86
2023/06/15 05:22:34;;;;;;;3.50;2.30;;;;;;;;;;5014336;28;20032;-85
2023/06/15 05:25:00;;;;;;;2.67;1.85;;;;;;;;;;5030576;28;20029;-85
2023/06/15 05:27:25;;;;;;;4.00;2.10;;;;;;;;;;5030516;28;20026;-85
2023/06/15 05:29:51;;;;;;;3.35;2.03;;;;;;;;;;5014236;28;20057;-85
2023/06/15 05:32:16;;;;;;;2.03;1.75;;;;;;;;;;5029782;28;20144;-85
2023/06/15 05:34:41;;;;;;;4.18;2.03;;;;;;;;;;5031987;28;20021;-84
2023/06/15 05:37:07;;;;;;;2.65;1.90;;;;;;;;;;5025839;28;20470;-85
2023/06/15 05:39:32;;;;;;;2.90;2.25;;;;;;;;;;5030373;28;20021;-85
2023/06/15 05:41:58;;;;;;;2.42;2.03;;;;;;;;;;5029235;28;20041;-86
2023/06/15 05:44:23;;;;;;;3.25;2.22;;;;;;;;;;5013945;28;20079;-85
2023/06/15 05:46:50;;;;;;;3.67;2.35;;;;;;;;;;5030672;28;20057;-84
2023/06/15 05:49:15;;;;;;;2.63;2.20;;;;;;;;;;5016421;28;20075;-85
2023/06/15 05:51:41;;;;;;;4.30;2.65;;;;;;;;;;5031398;28;20026;-85
2023/06/15 05:54:06;;;;;;;4.43;3.38;;;;;;;;;;5030537;28;20044;-86
2023/06/15 05:56:32;;;;;;;4.10;2.65;;;;;;;;;;5022758;28;20022;-86
2023/06/15 05:58:57;;;;;;;4.43;2.78;;;;;;;;;;5028243;28;20116;-86
2023/06/15 06:01:22;;;;;;;3.08;1.83;;;;;;;;;;5028349;28;20064;-86
2023/06/15 06:03:48;;;;;;;2.80;1.88;;;;;;;;;;5033912;28;20423;-84
2023/06/15 06:06:13;;;;;;;4.47;3.08;;;;;;;;;;5032913;28;20058;-84
2023/06/15 06:08:39;;;;;;;4.93;2.63;;;;;;;;;;5016351;28;20091;-85
2023/06/15 06:11:07;;;;;;;5.55;2.83;;;;;;;;;;5014065;28;20029;-83
2023/06/15 06:13:34;;;;;;;3.67;2.08;;;;;;;;;;5031047;28;20021;-83
2023/06/15 06:16:00;;;;;;;2.53;2.05;;;;;;;;;;5012487;28;20415;-84
2023/06/15 06:18:26;;;;;;;3.75;3.30;;;;;;;;;;5027000;28;20559;-84
2023/06/15 06:20:51;;;;;;;3.20;2.53;;;;;;;;;;5024257;28;20069;-85
2023/06/15 06:23:17;;;;;;;3.58;2.78;;;;;;;;;;5029013;28;20056;-84
2023/06/15 06:25:42;;;;;;;3.53;2.78;;;;;;;;;;5009784;28;20044;-86
2023/06/15 06:28:08;;;;;;;4.68;2.70;;;;;;;;;;5030604;28;20029;-84
2023/06/15 06:30:33;;;;;;;3.75;2.70;;;;;;;;;;5030787;28;20020;-86
2023/06/15 06:32:59;;;;;;;4.50;3.15;;;;;;;;;;5027458;28;20029;-85
2023/06/15 06:35:24;;;;;;;3.15;2.25;;;;;;;;;;5012528;28;20026;-86
2023/06/15 06:37:50;;;;;;;4.63;3.08;;;;;;;;;;5011759;28;20362;-87
2023/06/15 06:40:15;;;;;;;6.03;3.50;;;;;;;;;;5013440;28;20083;-86
2023/06/15 06:42:41;;;;;;;5.32;3.00;;;;;;;;;;5011977;28;20034;-86
2023/06/15 06:45:06;;;;;;;5.15;2.88;;;;;;;;;;5030744;28;20099;-85
2023/06/15 06:47:32;;;;;;;5.93;3.40;;;;;;;;;;5024742;28;20092;-84
2023/06/15 06:49:59;;;;;;;5.45;2.88;;;;;;;;;;5005823;28;20567;-86
2023/06/15 06:52:25;;;;;;;3.65;2.10;;;;;;;;;;5011984;28;20036;-87
2023/06/15 06:54:51;;;;;;;3.67;2.95;;;;;;;;;;5011868;28;20113;-89
2023/06/15 06:57:17;;;;;;;4.57;2.75;;;;;;;;;;5011934;28;20112;-86
2023/06/15 06:59:42;;;;;;;4.25;2.88;;;;;;;;;;5013378;28;20064;-88
2023/06/15 07:02:08;;;;;;;4.55;2.53;;;;;;;;;;5025680;28;20034;-89
2023/06/15 07:04:33;;;;;;;4.80;2.97;;;;;;;;;;5011602;28;20033;-85
2023/06/15 07:06:59;;;;;;;3.83;2.70;;;;;;;;;;5014004;28;20026;-83
2023/06/15 07:09:25;;;;;;;4.93;2.85;;;;;;;;;;5013310;28;20029;-89
2023/06/15 07:11:51;;;;;;;6.03;3.03;;;;;;;;;;5028143;28;20037;-88
2023/06/15 07:14:17;;;;;;;3.33;2.78;;;;;;;;;;5027534;28;20451;-87
2023/06/15 07:16:42;;;;;;;9.65;2.55;;;;;;;;;;5027403;28;20091;-84
2023/06/15 07:19:08;;;;;;;7.47;3.10;;;;;;;;;;5028999;28;20428;-88
2023/06/15 07:21:33;;;;;;;4.18;2.58;;;;;;;;;;5027118;28;20076;-89
2023/06/15 07:23:59;;;;;;;4.35;2.83;;;;;;;;;;5029685;28;20029;-86
2023/06/15 07:26:25;;;;;;;3.15;2.30;;;;;;;;;;5028002;28;20036;-87
2023/06/15 07:28:50;;;;;;;4.35;3.00;;;;;;;;;;5031314;28;20033;-87
2023/06/15 07:31:16;;;;;;;3.58;3.10;;;;;;;;;;5030668;28;20496;-88
2023/06/15 07:33:41;;;;;;;4.18;2.70;;;;;;;;;;5010547;28;20029;-86
2023/06/15 07:36:07;;;;;;;4.72;2.92;;;;;;;;;;5024665;28;20436;-86
2023/06/15 07:38:32;;;;;;;3.03;2.15;;;;;;;;;;5030847;28;20029;-89
2023/06/15 07:40:58;;;;;;;4.20;2.92;;;;;;;;;;5027461;28;20103;-86
2023/06/15 07:43:23;;;;;;;2.83;2.33;;;;;;;;;;5026775;28;20029;-85
2023/06/15 07:45:49;;;;;;;4.95;3.17;;;;;;;;;;5032391;28;20029;-87
2023/06/15 07:48:14;;;;;;;4.40;2.40;;;;;;;;;;5011696;28;20025;-88
2023/06/15 07:50:40;;;;;;;3.20;1.92;;;;;;;;;;5027447;28;20036;-87
2023/06/15 07:53:05;;;;;;;3.47;2.50;;;;;;;;;;5011966;28;20072;-85
2023/06/15 07:55:30;;;;;;;5.70;3.55;;;;;;;;;;5012083;28;20056;-86
2023/06/15 07:57:56;;;;;;;3.45;2.15;;;;;;;;;;5025425;28;20033;-87
2023/06/15 08:00:22;;;;;;;2.83;1.98;;;;;;;;;;5011390;28;20121;-86
2023/06/15 08:02:48;;;;;;;3.13;2.42;;;;;;;;;;5013063;28;20069;-87
2023/06/15 08:05:15;;;;;;;4.22;2.20;;;;;;;;;;5013232;28;20067;-86
2023/06/15 08:07:40;;;;;;;3.78;3.03;;;;;;;;;;5013240;28;20057;-86
2023/06/15 08:10:06;;;;;;;4.10;2.90;;;;;;;;;;5012660;28;20064;-87
2023/06/15 08:12:32;;;;;;;3.95;2.63;;;;;;;;;;5013081;28;20059;-88
2023/06/15 08:14:57;;;;;;;5.05;2.28;;;;;;;;;;5002412;28;20025;-84
2023/06/15 08:17:25;;;;;;;5.18;3.78;;;;;;;;;;5026066;28;20492;-88
2023/06/15 08:19:51;;;;;;;3.83;3.03;;;;;;;;;;5030701;28;20060;-83
2023/06/15 08:22:17;;;;;;;3.80;2.47;;;;;;;;;;5029318;28;20136;-86
2023/06/15 08:24:42;;;;;;;3.65;3.05;;;;;;;;;;5027738;28;20113;-87
2023/06/15 08:27:10;;;;;;;3.53;2.75;;;;;;;;;;5030049;28;20086;-85
2023/06/15 08:29:36;;;;;;;3.33;2.53;;;;;;;;;;5011080;28;20044;-87
2023/06/15 08:32:02;;;;;;;2.85;2.53;;;;;;;;;;5027377;28;20033;-86
2023/06/15 08:34:27;;;;;;;3.85;2.40;;;;;;;;;;5029198;28;20029;-86
2023/06/15 08:36:53;;;;;;;2.47;1.60;;;;;;;;;;5012221;28;20581;-85
2023/06/15 08:39:18;;;;;;;5.38;3.08;;;;;;;;;;5026904;28;20049;-86
2023/06/15 08:41:46;;;;;;;3.45;3.03;;;;;;;;;;5029810;28;20080;-87
2023/06/15 08:44:13;;;;;;;2.63;1.92;;;;;;;;;;5010281;28;20040;-87
2023/06/15 08:46:42;;;;;;;3.75;2.78;;;;;;;;;;5029946;28;20045;-83
2023/06/15 08:49:08;;;;;;;3.27;2.33;;;;;;;;;;5030640;28;20021;-84
2023/06/15 08:51:36;;;;;;;3.13;1.90;;;;;;;;;;5011862;28;20267;-88
2023/06/15 08:54:04;;;;;;;3.67;2.78;;;;;;;;;;5010812;28;20021;-85
2023/06/15 08:56:31;;;;;;;4.30;3.30;;;;;;;;;;5014748;28;20029;-85
2023/06/15 08:58:57;;;;;;;4.45;2.85;;;;;;;;;;5033023;28;20083;-85
2023/06/15 09:01:23;;;;;;;4.22;2.95;;;;;;;;;;5015988;28;20025;-83
2023/06/15 09:03:54;;;;;;;3.88;2.72;;;;;;;;;;5032870;28;20495;-86
2023/06/15 09:06:21;;;;;;;3.55;2.53;;;;;;;;;;5015893;28;20026;-84
2023/06/15 09:08:48;;;;;;;4.68;3.38;;;;;;;;;;5018084;28;20026;-87
2023/06/15 09:11:15;;;;;;;5.18;2.88;;;;;;;;;;5032383;28;20036;-88
2023/06/15 09:13:41;;;;;;;4.65;3.17;;;;;;;;;;5016374;28;20037;-87
2023/06/15 09:16:08;;;;;;;3.55;2.38;;;;;;;;;;5018295;28;20032;-86
2023/06/15 09:18:51;;;;;;;5.03;2.85;;;;;;;;;;5035709;28;20037;-87
2023/06/15 09:21:20;;;;;;;5.97;3.55;;;;;;;;;;5020749;28;20017;-91
2023/06/15 09:23:46;;;;;;;4.63;2.42;;;;;;;;;;5022049;28;20040;-88
2023/06/15 09:26:27;;;;;;;6.22;3.22;;;;;;;;;;5016223;28;20033;-91
2023/06/15 09:29:29;;;;;;;4.43;2.20;;;;;;;;;;5018466;28;20041;-91
2023/06/15 09:32:10;;;;;;;4.80;3.15;;;;;;;;;;5019302;28;20039;-91
2023/06/15 09:34:37;;;;;;;6.20;3.63;;;;;;;;;;5018020;28;20033;-92
2023/06/15 09:37:31;;;;;;;;;;;;;;;;;;;;;
2023/06/15 09:40:23;;;;;;;4.97;3.10;;;;;;;;;;5037081;28;20104;-88
2023/06/15 09:43:22;;;;;;;;;;;;;;;;;;;;;
2023/06/15 09:45:54;;;;;;;3.17;2.72;;;;;;;;;;5039682;28;20033;-85
2023/06/15 09:48:21;;;;;;;2.65;2.38;;;;;;;;;;5022161;28;20076;-85
2023/06/15 09:51:40;;;;;;;3.95;2.47;;;;;;;;;;5035501;28;20029;-87
2023/06/15 09:54:40;;;;;;;5.85;3.15;;;;;;;;;;5012605;28;20121;-85
2023/06/15 09:57:08;;;;;;;4.10;2.78;;;;;;;;;;5033469;28;20481;-86
2023/06/15 09:59:33;;;;;;;3.08;2.30;;;;;;;;;;5025836;28;20030;-87
2023/06/15 10:02:00;;;;;;;6.10;3.40;;;;;;;;;;5030126;28;20101;-86
2023/06/15 10:04:30;;;;;;;4.57;2.83;;;;;;;;;;5030909;28;20483;-85
2023/06/15 10:07:00;;;;;;;4.07;2.97;;;;;;;;;;5014989;28;20033;-86
2023/06/15 10:09:28;;;;;;;5.30;3.00;;;;;;;;;;5035374;28;20021;-86
2023/06/15 10:12:02;;;;;;;4.70;3.13;;;;;;;;;;5033241;28;20037;-86
2023/06/15 10:14:37;;;;;;;5.65;3.17;;;;;;;;;;5029120;28;20028;-85
2023/06/15 10:17:06;;;;;;;5.10;4.05;;;;;;;;;;5029569;28;20025;-84
2023/06/15 10:19:38;;;;;;;4.65;3.05;;;;;;;;;;5011951;28;20028;-83
2023/06/15 10:22:08;;;;;;;4.10;3.08;;;;;;;;;;5031565;28;21248;-88
2023/06/15 10:24:34;;;;;;;3.97;2.75;;;;;;;;;;5014128;28;20037;-85
2023/06/15 10:27:00;;;;;;;4.13;2.55;;;;;;;;;;5013529;28;20030;-87
2023/06/15 10:29:52;;;;;;;5.53;3.03;;;;;;;;;;5007507;28;20033;-85
2023/06/15 10:32:33;;;;;;;4.65;2.47;;;;;;;;;;5011604;28;20029;-86
2023/06/15 10:35:03;;;;;;;5.82;3.40;;;;;;;;;;5013473;28;20029;-86
2023/06/15 10:37:31;;;;;;;3.40;2.88;;;;;;;;;;5013329;28;20026;-84
2023/06/15 10:40:11;;;;;;;5.65;3.42;;;;;;;;;;5013278;28;20040;-84
2023/06/15 10:42:43;;;;;;;4.57;3.28;;;;;;;;;;5030225;28;20504;-84
2023/06/15 10:45:38;;;;;;;6.75;3.33;;;;;;;;;;5014148;28;20179;-83
2023/06/15 10:48:04;;;;;;;5.57;3.25;;;;;;;;;;5001664;28;20054;-83
2023/06/15 10:50:48;;;;;;;5.03;3.17;;;;;;;;;;5008920;28;20032;-84
2023/06/15 10:53:28;;;;;;;3.55;2.50;;;;;;;;;;4992512;28;20497;-85
2023/06/15 10:55:57;;;;;;;;;;;;;;;;;;4994764;28;20018;-86
2023/06/15 10:58:24;;;;;;;3.40;2.40;;;;;;;;;;4985840;28;19914;-85
2023/06/15 11:01:16;;;;;;;4.43;2.38;;;;;;;;;;4990622;28;20049;-84
2023/06/15 11:03:43;;;;;;;3.42;2.00;;;;;;;;;;4993384;28;20478;-84
2023/06/15 11:06:13;;;;;;;3.85;2.13;;;;;;;;;;5006464;28;20030;-86
2023/06/15 11:08:49;;;;;;;5.88;3.15;;;;;;;;;;5005115;28;20036;-84
2023/06/15 11:11:18;;;;;;;4.28;3.13;;;;;;;;;;4995274;28;20034;-84
2023/06/15 11:13:55;;;;;;;3.08;2.25;;;;;;;;;;5008858;28;20101;-84
2023/06/15 11:16:26;;;;;;;3.20;2.42;;;;;;;;;;4987808;28;20022;-86
2023/06/15 11:19:19;;;;;;;3.92;2.75;;;;;;;;;;4991372;28;20056;-84
2023/06/15 11:21:57;;;;;;;4.05;2.45;;;;;;;;;;4993622;28;20457;-84
2023/06/15 11:24:29;;;;;;;4.63;3.33;;;;;;;;;;5005465;28;20169;-83
2023/06/15 11:26:55;;;;;;;3.10;2.38;;;;;;;;;;4991009;28;20030;-84
2023/06/15 11:29:25;;;;;;;4.90;3.30;;;;;;;;;;4993668;28;20037;-84
2023/06/15 11:31:54;;;;;;;2.80;2.13;;;;;;;;;;4989678;28;20375;-84
2023/06/15 11:34:20;;;;;;;3.33;2.63;;;;;;;;;;5007101;28;20061;-83
2023/06/15 11:36:46;;;;;;;6.13;3.95;;;;;;;;;;4993368;28;20461;-84
2023/06/15 11:39:22;;;;;;;3.97;2.65;;;;;;;;;;5008811;28;20026;-84
2023/06/15 11:41:53;;;;;;;3.17;2.53;;;;;;;;;;5006858;28;20540;-83
2023/06/15 11:44:19;;;;;;;3.03;2.13;;;;;;;;;;5010351;28;20407;-84
2023/06/15 11:46:54;;;;;;;3.53;2.60;;;;;;;;;;4998005;28;20140;-83
2023/06/15 11:49:21;;;;;;;4.35;2.83;;;;;;;;;;5028539;28;20413;-85
2023/06/15 11:51:47;;;;;;;5.10;2.58;;;;;;;;;;5030713;28;20445;-85
2023/06/15 11:54:15;;;;;;;3.65;2.60;;;;;;;;;;5027383;28;20026;-86
2023/06/15 11:56:47;;;;;;;2.85;1.90;;;;;;;;;;5023224;28;20072;-87
2023/06/15 11:59:14;;;;;;;2.28;1.77;;;;;;;;;;5026603;28;20034;-85
2023/06/15 12:01:40;;;;;;;4.03;2.70;;;;;;;;;;5012968;28;20120;-87
2023/06/15 12:04:13;;;;;;;4.00;2.53;;;;;;;;;;5029902;28;20112;-85
2023/06/15 12:06:48;;;;;;;3.22;2.63;;;;;;;;;;5012969;28;20091;-85
2023/06/15 12:09:16;;;;;;;4.43;3.17;;;;;;;;;;5009964;28;20033;-85
2023/06/15 12:11:43;;;;;;;2.65;2.03;;;;;;;;;;5009657;28;20026;-85
2023/06/15 12:14:10;;;;;;;5.57;3.22;;;;;;;;;;5021276;28;20481;-85
2023/06/15 12:16:36;;;;;;;3.50;2.53;;;;;;;;;;5028899;28;20470;-84
2023/06/15 12:19:03;;;;;;;2.67;2.05;;;;;;;;;;5030699;28;20033;-84
2023/06/15 12:21:35;;;;;;;4.20;2.55;;;;;;;;;;5028706;28;20047;-83
2023/06/15 12:24:02;;;;;;;2.63;1.67;;;;;;;;;;5001714;28;20021;-86
2023/06/15 12:26:32;;;;;;;4.03;2.15;;;;;;;;;;5030895;28;20026;-85
2023/06/15 12:28:58;;;;;;;3.70;2.53;;;;;;;;;;5026351;28;20071;-85
2023/06/15 12:31:32;;;;;;;4.63;2.05;;;;;;;;;;5034262;28;20485;-84
2023/06/15 12:33:58;;;;;;;2.75;1.95;;;;;;;;;;5013021;28;20454;-82
2023/06/15 12:36:25;;;;;;;2.97;2.03;;;;;;;;;;5033163;28;20163;-84
2023/06/15 12:38:51;;;;;;;1.58;1.20;;;;;;;;;;5025406;28;20025;-86
2023/06/15 12:41:18;;;;;;;4.20;2.45;;;;;;;;;;5037321;28;20028;-86
2023/06/15 12:43:45;;;;;;;2.08;1.75;;;;;;;;;;5030625;28;20389;-87
2023/06/15 12:46:10;;;;;;;3.90;1.85;;;;;;;;;;5031615;28;20075;-85
2023/06/15 12:48:36;;;;;;;3.45;2.33;;;;;;;;;;5033937;28;20482;-82
2023/06/15 12:51:02;;;;;;;3.95;2.72;;;;;;;;;;5028691;28;20493;-84
2023/06/15 12:53:28;;;;;;;2.97;2.38;;;;;;;;;;5032670;28;20457;-84
2023/06/15 12:55:53;;;;;;;3.10;2.30;;;;;;;;;;5012169;28;20025;-84
2023/06/15 12:58:19;;;;;;;3.03;2.00;;;;;;;;;;5029354;28;20109;-83
2023/06/15 13:00:44;;;;;;;2.15;1.77;;;;;;;;;;5031556;28;20481;-84
2023/06/15 13:03:11;;;;;;;2.40;1.73;;;;;;;;;;5029061;28;20029;-86
2023/06/15 13:05:38;;;;;;;2.33;1.75;;;;;;;;;;5025268;28;20064;-85
2023/06/15 13:08:04;;;;;;;2.70;2.00;;;;;;;;;;5032177;28;20099;-84
2023/06/15 13:10:33;;;;;;;3.05;2.17;;;;;;;;;;5023946;28;20025;-84
2023/06/15 13:12:58;;;;;;;2.60;2.15;;;;;;;;;;5032414;28;20441;-87
2023/06/15 13:15:26;;;;;;;2.17;1.45;;;;;;;;;;5021940;28;20040;-83
2023/06/15 13:17:52;;;;;;;3.10;2.15;;;;;;;;;;5008393;28;20029;-87
2023/06/15 13:20:18;;;;;;;1.95;1.65;;;;;;;;;;5016511;28;20033;-86
2023/06/15 13:22:46;;;;;;;3.42;2.25;;;;;;;;;;5033625;28;20135;-84
2023/06/15 13:25:12;;;;;;;2.90;1.58;;;;;;;;;;5014778;28;20436;-85
2023/06/15 13:27:38;;;;;;;2.63;2.00;;;;;;;;;;5012586;28;20116;-85
2023/06/15 13:30:12;;;;;;;2.92;1.90;;;;;;;;;;5032590;28;20091;-86
2023/06/15 13:32:39;;;;;;;2.33;1.55;;;;;;;;;;5032779;28;20029;-87
2023/06/15 13:35:06;;;;;;;2.35;1.45;;;;;;;;;;5016953;28;20037;-86
2023/06/15 13:37:32;;;;;;;1.33;1.02;;;;;;;;;;5013782;28;20107;-86
2023/06/15 13:39:59;;;;;;;4.65;1.77;;;;;;;;;;5031565;28;20029;-84
2023/06/15 13:42:25;;;;;;;1.70;1.38;;;;;;;;;;5031750;28;20037;-84
2023/06/15 13:44:51;;;;;;;3.00;2.00;;;;;;;;;;5031441;28;20576;-87
2023/06/15 13:47:19;;;;;;;2.92;1.88;;;;;;;;;;5014478;28;20042;-85
2023/06/15 13:49:48;;;;;;;3.42;2.50;;;;;;;;;;5014194;28;20068;-86
2023/06/15 13:52:14;;;;;;;2.88;1.80;;;;;;;;;;5031536;28;20021;-86
2023/06/15 13:54:40;;;;;;;1.77;1.30;;;;;;;;;;5016221;28;20044;-87
2023/06/15 13:57:06;;;;;;;2.33;1.50;;;;;;;;;;5031174;28;20555;-86
2023/06/15 13:59:32;;;;;;;3.17;2.35;;;;;;;;;;5015263;28;20040;-83
2023/06/15 14:01:58;;;;;;;2.00;1.33;;;;;;;;;;5032339;28;20433;-84
2023/06/15 14:04:23;;;;;;;2.28;1.80;;;;;;;;;;5012994;28;20116;-87
2023/06/15 14:06:48;;;;;;;2.80;2.42;;;;;;;;;;5017159;28;20075;-87
2023/06/15 14:09:14;;;;;;;2.88;2.55;;;;;;;;;;5034970;28;20347;-86
2023/06/15 14:11:40;;;;;;;2.95;1.83;;;;;;;;;;5013540;28;20060;-85
2023/06/15 14:14:05;;;;;;;2.45;1.85;;;;;;;;;;5011497;28;20060;-83
2023/06/15 14:16:39;;;;;;;4.40;2.00;;;;;;;;;;5015551;28;20105;-86
2023/06/15 14:19:05;;;;;;;2.15;1.52;;;;;;;;;;5015852;28;20042;-86
2023/06/15 14:21:51;;;;;;;3.13;1.95;;;;;;;;;;5018075;28;20025;-86
2023/06/15 14:25:04;;;;;;;7.43;2.55;;;;;;;;;;5018246;28;20099;-85
2023/06/15 14:30:55;;;;;;;3.10;2.05;;;;;;;;;;5032219;28;20068;-85
2023/06/15 14:33:36;;;;;;;3.97;2.47;;;;;;;;;;5017750;28;20029;-85
2023/06/15 14:36:43;;;;;;;1.52;1.42;;;;;;;;;;5018782;28;20094;-85
2023/06/15 14:39:12;;;;;;;2.20;1.58;;;;;;;;;;4950210;28;20035;-86
2023/06/15 14:41:38;;;;;;;2.58;2.10;;;;;;;;;;4954664;28;20031;-86
2023/06/15 14:44:09;;;;;;;1.83;1.63;;;;;;;;;;4987065;28;20071;-84
2023/06/15 14:46:39;;;;;;;2.60;2.13;;;;;;;;;;5029837;28;20041;-85
2023/06/15 14:49:08;;;;;;;2.00;1.58;;;;;;;;;;5024239;28;20045;-85
2023/06/15 14:51:35;;;;;;;2.83;2.20;;;;;;;;;;5031735;28;20029;-85
2023/06/15 14:54:01;;;;;;;3.88;2.50;;;;;;;;;;5024684;28;20087;-85
2023/06/15 14:56:27;;;;;;;3.85;2.78;;;;;;;;;;5025871;28;20124;-85